createdAt,value
2017-09-02T00:00:18.270Z,65.05
2017-09-02T00:01:28.663Z,65.33
2017-09-02T00:02:38.999Z,65.33
2017-09-02T00:03:49.030Z,65.05
2017-09-02T00:04:59.369Z,65.23
2017-09-02T00:06:09.707Z,65.23
2017-09-02T00:07:20.049Z,65.05
2017-09-02T00:08:34.205Z,65.05
2017-09-02T00:09:44.238Z,65.33
2017-09-02T00:10:54.582Z,65.33
2017-09-02T00:12:04.939Z,65.33
2017-09-02T00:13:15.278Z,65.14
2017-09-02T00:14:25.318Z,65.05
2017-09-02T00:15:35.658Z,65.05
2017-09-02T00:16:45.662Z,65.05
2017-09-02T00:17:55.994Z,65.05
2017-09-02T00:19:06.340Z,65.05
2017-09-02T00:20:16.668Z,65.05
2017-09-02T00:21:26.680Z,65.05
2017-09-02T00:22:37.025Z,65.05
2017-09-02T00:23:47.362Z,65.05
2017-09-02T00:24:57.702Z,65.14
2017-09-02T00:26:08.049Z,65.14
2017-09-02T00:27:18.382Z,64.95
2017-09-02T00:28:28.760Z,65.14
2017-09-02T00:29:38.801Z,65.05
2017-09-02T00:30:48.889Z,64.85
2017-09-02T00:31:59.226Z,64.95
2017-09-02T00:33:09.270Z,65.14
2017-09-02T00:34:19.293Z,65.05
2017-09-02T00:35:29.631Z,65.05
2017-09-02T00:36:39.647Z,65.05
2017-09-02T00:37:49.396Z,65.23
2017-09-02T00:38:59.729Z,65.05
2017-09-02T00:40:10.066Z,65.33
2017-09-02T00:41:20.100Z,65.05
2017-09-02T00:42:32.803Z,65.33
2017-09-02T00:43:42.832Z,65.33
2017-09-02T00:44:52.864Z,65.72
2017-09-02T00:46:02.882Z,65.3
2017-09-02T00:47:14.155Z,65.3
2017-09-02T00:48:24.508Z,65.01
2017-09-02T00:49:34.524Z,65.2
2017-09-02T00:50:44.549Z,65.11
2017-09-02T00:51:54.565Z,65.11
2017-09-02T00:53:04.921Z,65.05
2017-09-02T00:54:14.618Z,65.23
2017-09-02T00:55:24.645Z,65.05
2017-09-02T00:56:34.985Z,65.11
2017-09-02T00:57:45.323Z,65.01
2017-09-02T00:58:55.334Z,65.39
2017-09-02T01:00:05.668Z,65.59
2017-09-02T01:01:15.691Z,65.11
2017-09-02T01:02:25.705Z,65.01
2017-09-02T01:03:36.043Z,65.01
2017-09-02T01:04:46.073Z,65.05
2017-09-02T01:05:56.097Z,65.05
2017-09-02T01:07:06.459Z,65.05
2017-09-02T01:08:16.847Z,65.05
2017-09-02T01:09:27.185Z,65.05
2017-09-02T01:10:37.208Z,65.05
2017-09-02T01:11:47.606Z,65.05
2017-09-02T01:12:57.945Z,65.05
2017-09-02T01:14:07.970Z,65.05
2017-09-02T01:15:18.296Z,64.95
2017-09-02T01:16:28.631Z,65.14
2017-09-02T01:17:38.659Z,65.05
2017-09-02T01:18:49.007Z,65.23
2017-09-02T01:19:59.387Z,65.23
2017-09-02T01:21:09.745Z,65.05
2017-09-02T01:22:20.066Z,64.92
2017-09-02T01:23:30.399Z,65.05
2017-09-02T01:24:40.748Z,65.59
2017-09-02T01:25:51.076Z,65.11
2017-09-02T01:27:00.468Z,65.39
2017-09-02T01:28:10.490Z,65.39
2017-09-02T01:29:20.819Z,65.23
2017-09-02T01:30:31.159Z,65.33
2017-09-02T01:31:41.549Z,65.23
2017-09-02T01:32:51.888Z,65.05
2017-09-02T01:34:02.229Z,65.23
2017-09-02T01:35:12.261Z,65.14
2017-09-02T01:36:22.597Z,65.62
2017-09-02T01:37:32.938Z,65.68
2017-09-02T01:38:43.285Z,65.3
2017-09-02T01:39:53.631Z,65.49
2017-09-02T01:41:03.976Z,65.78
2017-09-02T01:42:14.330Z,65.49
2017-09-02T01:43:24.664Z,65.3
2017-09-02T01:44:34.996Z,65.3
2017-09-02T01:45:45.342Z,65.78
2017-09-02T01:46:55.681Z,65.3
2017-09-02T01:48:05.379Z,65.2
2017-09-02T01:49:15.771Z,65.3
2017-09-02T01:50:25.800Z,65.01
2017-09-02T01:51:38.309Z,65.59
2017-09-02T01:52:48.650Z,65.49
2017-09-02T01:53:58.984Z,65.68
2017-09-02T01:55:09.367Z,65.78
2017-09-02T01:56:19.710Z,65.49
2017-09-02T01:57:30.059Z,65.88
2017-09-02T01:58:40.405Z,65.49
2017-09-02T01:59:50.444Z,65.3
2017-09-02T02:01:00.798Z,65.39
2017-09-02T02:02:11.156Z,65.68
2017-09-02T02:03:21.195Z,65.68
2017-09-02T02:04:31.564Z,65.78
2017-09-02T02:05:41.573Z,65.78
2017-09-02T02:06:51.922Z,65.59
2017-09-02T02:08:02.247Z,65.49
2017-09-02T02:09:12.274Z,65.68
2017-09-02T02:10:23.265Z,65.55
2017-09-02T02:11:33.608Z,65.46
2017-09-02T02:12:43.957Z,65.55
2017-09-02T02:13:54.300Z,65.49
2017-09-02T02:15:04.644Z,65.46
2017-09-02T02:16:14.661Z,65.55
2017-09-02T02:17:25.006Z,65.17
2017-09-02T02:18:35.086Z,65.55
2017-09-02T02:19:45.422Z,65.46
2017-09-02T02:20:55.771Z,65.26
2017-09-02T02:22:06.118Z,65.26
2017-09-02T02:23:16.470Z,65.26
2017-09-02T02:24:26.878Z,65.84
2017-09-02T02:25:37.212Z,65.26
2017-09-02T02:26:47.551Z,65.55
2017-09-02T02:27:57.909Z,65.46
2017-09-02T02:29:08.253Z,65.55
2017-09-02T02:30:18.589Z,65.65
2017-09-02T02:31:28.616Z,65.46
2017-09-02T02:32:38.953Z,65.65
2017-09-02T02:33:48.669Z,65.75
2017-09-02T02:34:59.015Z,65.46
2017-09-02T02:36:09.374Z,65.65
2017-09-02T02:37:19.736Z,65.55
2017-09-02T02:38:30.101Z,65.65
2017-09-02T02:39:40.432Z,65.65
2017-09-02T02:40:52.392Z,65.46
2017-09-02T02:42:02.466Z,65.36
2017-09-02T02:43:12.484Z,65.75
2017-09-02T02:44:22.825Z,65.36
2017-09-02T02:45:32.527Z,65.17
2017-09-02T02:46:42.918Z,65.26
2017-09-02T02:47:53.001Z,65.26
2017-09-02T02:49:03.355Z,65.26
2017-09-02T02:50:13.704Z,65.46
2017-09-02T02:51:24.060Z,65.75
2017-09-02T02:52:34.088Z,65.75
2017-09-02T02:53:44.476Z,65.65
2017-09-02T02:54:54.817Z,65.46
2017-09-02T02:56:05.692Z,65.65
2017-09-02T02:57:17.975Z,65.46
2017-09-02T02:58:28.994Z,65.55
2017-09-02T02:59:39.331Z,65.65
2017-09-02T03:00:49.356Z,65.55
2017-09-02T03:01:59.707Z,65.55
2017-09-02T03:33:36.907Z,62.52
2017-09-02T03:34:47.222Z,62.9
2017-09-02T03:35:57.549Z,63.83
2017-09-02T03:37:07.871Z,64.4
2017-09-02T03:38:18.214Z,64.59
2017-09-02T03:39:28.298Z,65.2
2017-09-02T03:40:38.642Z,65.68
2017-09-02T03:41:48.972Z,65.68
2017-09-02T03:42:59.308Z,65.58
2017-09-02T03:44:09.657Z,66.35
2017-09-02T03:45:19.990Z,65.68
2017-09-02T03:46:30.324Z,65.81
2017-09-02T03:47:40.671Z,66.19
2017-09-02T03:48:50.378Z,66.28
2017-09-02T03:50:00.695Z,66.38
2017-09-02T03:51:10.716Z,66.41
2017-09-02T03:52:21.054Z,65.65
2017-09-02T03:53:31.399Z,65.55
2017-09-02T03:54:41.447Z,65.45
2017-09-02T03:55:51.474Z,65.74
2017-09-02T03:57:01.830Z,65.36
2017-09-02T03:58:12.182Z,65.58
2017-09-02T03:59:22.521Z,65.2
2017-09-02T04:00:32.542Z,65.39
2017-09-02T04:01:42.889Z,65.39
2017-09-02T04:02:53.286Z,65.39
2017-09-02T04:04:03.623Z,65.39
2017-09-02T04:05:13.957Z,65.23
2017-09-02T04:06:24.291Z,65.3
2017-09-02T04:07:34.621Z,65.2
2017-09-02T04:08:45.562Z,65.3
2017-09-02T04:09:55.579Z,65.33
2017-09-02T04:11:05.921Z,65.39
2017-09-02T04:12:16.263Z,65.2
2017-09-02T04:13:27.866Z,65.39
2017-09-02T04:14:37.951Z,65.42
2017-09-02T04:15:48.304Z,65.52
2017-09-02T04:16:58.350Z,65.71
2017-09-02T04:18:08.372Z,65.33
2017-09-02T04:19:18.718Z,65.42
2017-09-02T04:20:29.067Z,65.42
2017-09-02T04:21:39.090Z,65.71
2017-09-02T04:22:49.450Z,65.58
2017-09-02T04:23:59.791Z,65.62
2017-09-02T04:25:10.183Z,65.42
2017-09-02T04:26:19.920Z,65.33
2017-09-02T04:27:29.965Z,65.52
2017-09-02T04:28:39.995Z,64.95
2017-09-02T04:29:50.336Z,64.95
2017-09-02T04:31:00.349Z,64.95
2017-09-02T04:32:10.749Z,65.17
2017-09-02T04:33:21.087Z,65.17
2017-09-02T04:34:31.433Z,64.98
2017-09-02T04:35:41.774Z,65.26
2017-09-02T04:36:52.121Z,64.79
2017-09-02T04:38:02.533Z,64.98
2017-09-02T04:39:12.867Z,64.69
2017-09-02T04:40:23.206Z,64.5
2017-09-02T04:41:33.557Z,64.5
2017-09-02T04:42:43.912Z,64.5
2017-09-02T04:43:54.316Z,64.43
2017-09-02T04:45:04.666Z,64.63
2017-09-02T04:46:15.013Z,64.15
2017-09-02T04:47:25.353Z,64.63
2017-09-02T04:48:35.701Z,64.15
2017-09-02T04:49:46.120Z,63.32
2017-09-02T04:50:56.471Z,63.16
2017-09-02T04:52:06.797Z,62.9
2017-09-02T04:53:17.139Z,62.07
2017-09-02T04:54:27.472Z,62.35
2017-09-02T04:55:37.875Z,62.58
2017-09-02T04:56:47.912Z,62.1
2017-09-02T04:57:58.273Z,62.32
2017-09-02T04:59:08.289Z,62.61
2017-09-02T05:00:18.645Z,62.51
2017-09-02T05:01:29.008Z,62.54
2017-09-02T05:02:39.359Z,62.35
2017-09-02T05:03:49.697Z,62.54
2017-09-02T05:05:00.033Z,62.29
2017-09-02T05:06:10.077Z,62.29
2017-09-02T05:07:20.416Z,62.67
2017-09-02T05:08:30.758Z,62.57
2017-09-02T05:09:40.801Z,62.32
2017-09-02T05:10:50.520Z,62.22
2017-09-02T05:12:00.859Z,62.32
2017-09-02T05:13:11.246Z,62.8
2017-09-02T05:14:20.955Z,62.8
2017-09-02T05:15:31.287Z,63.76
2017-09-02T05:16:41.626Z,64.12
2017-09-02T05:17:51.668Z,64.31
2017-09-02T05:19:02.014Z,64.31
2017-09-02T05:20:12.043Z,64.37
2017-09-02T05:21:22.402Z,64.66
2017-09-02T05:22:32.739Z,64.66
2017-09-02T05:23:43.094Z,64.95
2017-09-02T05:24:53.170Z,64.76
2017-09-02T05:26:03.515Z,64.76
2017-09-02T05:27:13.866Z,64.86
2017-09-02T05:28:23.878Z,64.66
2017-09-02T05:29:34.223Z,64.28
2017-09-02T05:30:44.658Z,64.37
2017-09-02T05:31:54.999Z,64.37
2017-09-02T05:33:05.337Z,64.37
2017-09-02T05:34:15.675Z,64.28
2017-09-02T05:35:26.028Z,64.18
2017-09-02T05:36:39.442Z,63.79
2017-09-02T05:37:49.798Z,63.79
2017-09-02T05:39:00.134Z,63.79
2017-09-02T05:40:09.836Z,64.18
2017-09-02T05:41:19.889Z,63.89
2017-09-02T05:42:30.220Z,63.6
2017-09-02T05:43:40.567Z,63.54
2017-09-02T05:44:50.591Z,63.73
2017-09-02T05:46:00.611Z,63.44
2017-09-02T05:47:10.944Z,63.73
2017-09-02T05:48:21.298Z,63.64
2017-09-02T05:49:31.337Z,62.8
2017-09-02T05:50:41.713Z,62.99
2017-09-02T05:51:52.054Z,62.54
2017-09-02T05:53:01.807Z,62.63
2017-09-02T05:54:12.155Z,62.73
2017-09-02T05:55:22.501Z,62.45
2017-09-02T05:56:32.855Z,62.09
2017-09-02T05:57:43.222Z,62.28
2017-09-02T05:58:53.561Z,62.76
2017-09-02T06:00:03.921Z,62.66
2017-09-02T06:01:13.946Z,62.18
2017-09-02T06:02:23.962Z,62.38
2017-09-02T06:03:34.315Z,62.48
2017-09-02T06:04:44.711Z,62.48
2017-09-02T06:05:55.057Z,62.66
2017-09-02T06:07:05.397Z,62.38
2017-09-02T06:08:15.427Z,62.51
2017-09-02T06:09:25.757Z,62.89
2017-09-02T06:10:36.118Z,62.6
2017-09-02T06:11:46.457Z,62.7
2017-09-02T06:12:56.171Z,62.89
2017-09-02T06:14:06.188Z,62.54
2017-09-02T06:15:16.214Z,62.92
2017-09-02T06:16:26.608Z,62.05
2017-09-02T06:17:36.953Z,62.82
2017-09-02T06:18:47.299Z,62.73
2017-09-02T06:19:57.662Z,62.54
2017-09-02T06:21:08.009Z,62.63
2017-09-02T06:22:18.415Z,62.82
2017-09-02T06:23:28.759Z,62.34
2017-09-02T06:24:39.099Z,62.82
2017-09-02T06:25:49.119Z,62.44
2017-09-02T06:26:59.168Z,62.7
2017-09-02T06:28:09.505Z,63.09
2017-09-02T06:29:19.219Z,62.79
2017-09-02T06:30:29.238Z,62.89
2017-09-02T06:31:39.272Z,62.79
2017-09-02T06:32:49.622Z,63.57
2017-09-02T06:33:59.648Z,63.44
2017-09-02T06:35:09.998Z,63.44
2017-09-02T06:36:20.021Z,63.44
2017-09-02T06:37:30.377Z,63.73
2017-09-02T06:38:40.721Z,63.44
2017-09-02T06:39:50.784Z,63.44
2017-09-02T06:41:01.124Z,63.63
2017-09-02T06:42:11.186Z,63.34
2017-09-02T06:43:20.902Z,63.44
2017-09-02T06:44:31.239Z,63.06
2017-09-02T06:45:41.593Z,63.02
2017-09-02T06:46:51.930Z,62.86
2017-09-02T06:48:02.278Z,62.57
2017-09-02T06:49:12.614Z,62.76
2017-09-02T06:50:22.634Z,62.38
2017-09-02T06:51:32.681Z,62.48
2017-09-02T06:52:43.031Z,62.66
2017-09-02T06:53:53.370Z,63.34
2017-09-02T06:55:03.724Z,62.93
2017-09-02T06:56:14.096Z,62.83
2017-09-02T06:57:24.123Z,63.41
2017-09-02T06:58:35.660Z,63.31
2017-09-02T06:59:46.007Z,63.12
2017-09-02T07:00:56.357Z,63.41
2017-09-02T07:02:06.713Z,63.31
2017-09-02T07:03:17.066Z,63.41
2017-09-02T07:04:27.421Z,63.76
2017-09-02T07:05:37.758Z,63.57
2017-09-02T07:06:48.109Z,63.76
2017-09-02T07:07:58.453Z,63.57
2017-09-02T07:09:08.851Z,63.57
2017-09-02T07:10:19.193Z,63.15
2017-09-02T07:11:28.899Z,63.54
2017-09-02T07:12:39.234Z,63.54
2017-09-02T07:13:49.575Z,63.54
2017-09-02T07:14:59.965Z,63.44
2017-09-02T07:16:09.676Z,63.64
2017-09-02T07:17:20.018Z,64.12
2017-09-02T07:18:30.472Z,64.12
2017-09-02T07:19:40.801Z,64.21
2017-09-02T07:20:50.810Z,63.82
2017-09-02T07:22:01.155Z,63.34
2017-09-02T07:23:11.501Z,63.34
2017-09-02T07:24:21.843Z,63.47
2017-09-02T07:25:32.197Z,63.28
2017-09-02T07:26:42.214Z,63.38
2017-09-02T07:27:52.243Z,63.47
2017-09-02T07:29:02.271Z,62.7
2017-09-02T07:30:12.616Z,62.54
2017-09-02T07:31:24.360Z,62.45
2017-09-02T07:32:34.694Z,62.54
2017-09-02T07:33:45.033Z,62.38
2017-09-02T07:34:55.365Z,62.38
2017-09-02T07:36:05.707Z,62.76
2017-09-02T07:37:15.748Z,62.38
2017-09-02T07:38:26.080Z,62.18
2017-09-02T07:39:36.424Z,62.18
2017-09-02T07:40:46.774Z,62.31
2017-09-02T07:41:57.105Z,62.28
2017-09-02T07:43:07.137Z,61.83
2017-09-02T07:44:17.478Z,61.93
2017-09-02T07:45:27.564Z,62.31
2017-09-02T07:46:37.583Z,62.34
2017-09-02T07:47:47.926Z,62.15
2017-09-02T07:48:57.963Z,62.54
2017-09-02T07:50:07.992Z,62.05
2017-09-02T07:51:18.390Z,62.05
2017-09-02T07:52:28.432Z,62.28
2017-09-02T07:53:38.788Z,62.28
2017-09-02T07:54:48.829Z,61.99
2017-09-02T07:55:59.176Z,62.08
2017-09-02T07:57:09.520Z,62.44
2017-09-02T07:58:19.549Z,62.34
2017-09-02T07:59:29.892Z,62.63
2017-09-02T08:00:39.952Z,62.63
2017-09-02T08:01:49.990Z,62.44
2017-09-02T08:03:00.391Z,62.05
2017-09-02T08:04:10.434Z,62.15
2017-09-02T08:05:20.778Z,62.28
2017-09-02T08:06:30.819Z,62.34
2017-09-02T08:07:40.859Z,62.66
2017-09-02T08:08:51.191Z,62.44
2017-09-02T08:10:01.219Z,62.25
2017-09-02T08:11:11.659Z,62.28
2017-09-02T08:12:22.029Z,62.28
2017-09-02T08:13:32.374Z,62.08
2017-09-02T08:14:42.724Z,61.99
2017-09-02T08:15:53.076Z,62.5
2017-09-02T08:17:03.432Z,61.63
2017-09-02T08:18:13.787Z,61.44
2017-09-02T08:19:26.522Z,61.66
2017-09-02T08:20:36.560Z,62.4
2017-09-02T08:21:46.909Z,62.02
2017-09-02T08:22:56.621Z,61.92
2017-09-02T08:24:06.980Z,61.92
2017-09-02T08:25:17.427Z,61.92
2017-09-02T08:26:27.681Z,62.4
2017-09-02T08:27:37.434Z,62.31
2017-09-02T08:28:47.485Z,62.89
2017-09-02T08:29:57.827Z,63.37
2017-09-02T08:31:08.231Z,63.15
2017-09-02T08:32:18.561Z,62.57
2017-09-02T08:33:28.917Z,62.89
2017-09-02T08:34:39.257Z,62.4
2017-09-02T08:35:49.607Z,62.34
2017-09-02T08:36:59.999Z,62.27
2017-09-02T08:38:09.716Z,62.08
2017-09-02T08:39:19.754Z,62.34
2017-09-02T08:40:30.106Z,62.89
2017-09-02T08:41:40.185Z,62.5
2017-09-02T08:42:50.586Z,62.5
2017-09-02T08:44:00.937Z,61.79
2017-09-02T08:45:11.001Z,62.11
2017-09-02T08:46:21.010Z,62.76
2017-09-02T08:47:31.365Z,62.53
2017-09-02T08:48:41.784Z,63.18
2017-09-02T08:49:52.150Z,63.08
2017-09-02T08:51:02.178Z,62.6
2017-09-02T08:52:12.217Z,61.86
2017-09-02T08:53:22.277Z,61.6
2017-09-02T08:54:32.678Z,62.01
2017-09-02T08:55:42.724Z,62.18
2017-09-02T08:56:53.100Z,62.34
2017-09-02T08:58:03.495Z,62.24
2017-09-02T08:59:13.872Z,61.4
2017-09-02T09:00:23.955Z,60.75
2017-09-02T09:01:34.326Z,61.56
2017-09-02T09:02:44.033Z,61.36
2017-09-02T09:03:54.073Z,61.56
2017-09-02T09:05:04.485Z,61.56
2017-09-02T09:06:14.865Z,61.82
2017-09-02T09:07:24.950Z,61.36
2017-09-02T09:08:35.335Z,61.27
2017-09-02T09:09:45.389Z,60.98
2017-09-02T09:10:55.776Z,61.27
2017-09-02T09:12:08.154Z,61.66
2017-09-02T09:13:18.524Z,62.04
2017-09-02T09:14:29.106Z,62.04
2017-09-02T09:15:38.827Z,62.79
2017-09-02T09:16:49.201Z,62.69
2017-09-02T09:17:59.254Z,63.53
2017-09-02T09:19:09.632Z,63.89
2017-09-02T09:20:19.697Z,63.76
2017-09-02T09:21:30.057Z,63.76
2017-09-02T09:22:40.402Z,63.95
2017-09-02T09:23:50.441Z,63.76
2017-09-02T09:25:00.811Z,63.5
2017-09-02T09:26:10.537Z,62.73
2017-09-02T09:27:20.891Z,62.76
2017-09-02T09:28:31.241Z,62.66
2017-09-02T09:29:41.617Z,62.08
2017-09-02T09:30:51.976Z,62.21
2017-09-02T09:32:02.342Z,61.63
2017-09-02T09:33:12.715Z,61.63
2017-09-02T09:34:23.080Z,61.92
2017-09-02T09:35:33.440Z,62.3
2017-09-02T09:36:43.536Z,62.11
2017-09-02T09:37:53.906Z,62.4
2017-09-02T09:39:03.962Z,62.66
2017-09-02T09:40:14.009Z,63.69
2017-09-02T09:41:24.399Z,63.6
2017-09-02T09:42:34.770Z,63.6
2017-09-02T09:43:44.817Z,63.02
2017-09-02T09:44:54.910Z,62.85
2017-09-02T09:46:05.279Z,62.66
2017-09-02T09:47:15.639Z,62.11
2017-09-02T09:48:26.033Z,61.82
2017-09-02T09:49:36.374Z,61.15
2017-09-02T09:50:46.761Z,61.08
2017-09-02T09:51:57.132Z,61.18
2017-09-02T09:53:07.544Z,61.36
2017-09-02T09:54:17.943Z,61.27
2017-09-02T09:55:27.988Z,61.36
2017-09-02T09:56:37.704Z,61.56
2017-09-02T09:57:48.070Z,61.66
2017-09-02T09:58:58.467Z,61.85
2017-09-02T10:00:08.511Z,62.53
2017-09-02T10:01:18.931Z,62.14
2017-09-02T10:02:28.962Z,61.85
2017-09-02T10:03:39.325Z,62.01
2017-09-02T10:04:48.723Z,62.53
2017-09-02T10:05:58.775Z,62.88
2017-09-02T10:07:09.149Z,63.08
2017-09-02T10:08:19.538Z,62.79
2017-09-02T10:09:29.909Z,62.88
2017-09-02T10:10:40.265Z,62.79
2017-09-02T10:11:50.310Z,63.43
2017-09-02T10:13:00.404Z,63.43
2017-09-02T10:14:10.761Z,63.43
2017-09-02T10:15:20.820Z,63.34
2017-09-02T10:16:30.889Z,63.43
2017-09-02T10:17:41.256Z,62.73
2017-09-02T10:18:51.660Z,62.56
2017-09-02T10:20:01.707Z,62.95
2017-09-02T10:21:12.085Z,62.37
2017-09-02T10:22:22.448Z,62.21
2017-09-02T10:23:32.836Z,61.36
2017-09-02T10:24:43.236Z,61.27
2017-09-02T10:25:54.204Z,61.49
2017-09-02T10:27:04.259Z,61.4
2017-09-02T10:28:14.635Z,61.4
2017-09-02T10:29:25.024Z,61.4
2017-09-02T10:30:35.394Z,61.59
2017-09-02T10:31:45.739Z,61.59
2017-09-02T10:32:55.803Z,61.14
2017-09-02T10:34:05.856Z,61.24
2017-09-02T10:35:18.011Z,61.24
2017-09-02T10:36:28.452Z,61.52
2017-09-02T10:37:38.503Z,61.14
2017-09-02T10:38:48.867Z,60.88
2017-09-02T10:39:59.241Z,60.88
2017-09-02T10:41:08.983Z,61.55
2017-09-02T10:42:19.398Z,61.36
2017-09-02T10:43:29.757Z,61.26
2017-09-02T10:44:39.798Z,61.72
2017-09-02T10:45:50.173Z,61.62
2017-09-02T10:47:00.583Z,62.4
2017-09-02T10:48:10.947Z,62.37
2017-09-02T10:49:21.310Z,61.69
2017-09-02T10:50:31.686Z,60.75
2017-09-02T10:51:42.068Z,60.52
2017-09-02T10:52:52.110Z,59.87
2017-09-02T10:54:02.462Z,59.25
2017-09-02T10:55:12.499Z,58.89
2017-09-02T10:56:25.020Z,58.92
2017-09-02T10:57:36.458Z,59.5
2017-09-02T10:58:48.859Z,60.15
2017-09-02T10:59:59.267Z,60.25
2017-09-02T11:01:09.647Z,60.64
2017-09-02T11:02:19.700Z,61
2017-09-02T11:03:30.057Z,60.51
2017-09-02T11:04:40.417Z,60.44
2017-09-02T11:05:53.219Z,60.64
2017-09-02T11:07:03.586Z,61.19
2017-09-02T11:08:20.255Z,61.35
2017-09-02T11:09:30.295Z,62.1
2017-09-02T11:10:40.387Z,62.19
2017-09-02T11:11:50.751Z,62.16
2017-09-02T11:13:01.121Z,62.07
2017-09-02T11:14:11.515Z,62.46
2017-09-02T11:15:21.887Z,61.52
2017-09-02T11:16:32.268Z,61.32
2017-09-02T11:17:42.632Z,61.52
2017-09-02T11:18:53.015Z,61.32
2017-09-02T11:20:03.458Z,61.35
2017-09-02T11:21:13.832Z,61.55
2017-09-02T11:22:24.188Z,61.07
2017-09-02T11:23:34.564Z,61.35
2017-09-02T11:24:44.905Z,61.35
2017-09-02T11:25:55.008Z,62.01
2017-09-02T11:27:05.382Z,62.39
2017-09-02T11:28:15.748Z,62.95
2017-09-02T11:29:26.119Z,62.75
2017-09-02T11:30:36.474Z,63.2
2017-09-02T11:31:46.920Z,63.85
2017-09-02T11:32:57.293Z,63.43
2017-09-02T11:34:07.658Z,62.59
2017-09-02T11:35:18.036Z,61.94
2017-09-02T11:36:28.386Z,61.49
2017-09-02T11:37:38.752Z,61.42
2017-09-02T11:38:49.101Z,60.94
2017-09-02T11:39:59.454Z,60.19
2017-09-02T11:41:09.823Z,60.61
2017-09-02T11:42:21.688Z,60.74
2017-09-02T11:43:32.103Z,61.02
2017-09-02T11:44:42.500Z,60.35
2017-09-02T11:45:52.851Z,60.64
2017-09-02T11:47:03.189Z,61.41
2017-09-02T11:48:13.544Z,61.19
2017-09-02T11:49:23.944Z,61.68
2017-09-02T11:50:33.972Z,61.48
2017-09-02T11:51:44.328Z,61.41
2017-09-02T11:52:54.697Z,60.93
2017-09-02T11:54:04.739Z,60.57
2017-09-02T11:55:15.104Z,60.31
2017-09-02T11:56:25.457Z,60.92
2017-09-02T11:57:35.542Z,60.7
2017-09-02T11:58:45.599Z,60.86
2017-09-02T11:59:55.959Z,61.15
2017-09-02T12:01:06.352Z,60.67
2017-09-02T12:02:16.714Z,61.54
2017-09-02T12:03:27.073Z,61.71
2017-09-02T12:04:37.427Z,61.8
2017-09-02T12:05:47.822Z,62.29
2017-09-02T12:06:58.211Z,63.13
2017-09-02T12:08:08.559Z,63.65
2017-09-02T12:09:18.912Z,63.36
2017-09-02T12:10:29.267Z,63.07
2017-09-02T12:11:39.620Z,62.68
2017-09-02T12:12:50.179Z,62.29
2017-09-02T12:14:00.605Z,61.55
2017-09-02T12:15:10.951Z,61.35
2017-09-02T12:16:21.306Z,61.16
2017-09-02T12:17:31.696Z,61.48
2017-09-02T12:18:41.720Z,61.61
2017-09-02T12:19:52.112Z,60.93
2017-09-02T12:21:02.518Z,60.64
2017-09-02T12:22:12.876Z,60.77
2017-09-02T12:23:23.240Z,60.96
2017-09-02T12:24:33.638Z,60.47
2017-09-02T12:25:43.999Z,60.67
2017-09-02T12:26:54.035Z,60.96
2017-09-02T12:28:04.408Z,60.86
2017-09-02T12:29:14.453Z,60.86
2017-09-02T12:30:24.535Z,60.96
2017-09-02T12:31:34.586Z,61.15
2017-09-02T12:32:44.920Z,60.89
2017-09-02T12:33:55.303Z,60.99
2017-09-02T12:35:05.651Z,61.54
2017-09-02T12:36:15.721Z,61.35
2017-09-02T12:37:26.079Z,61.12
2017-09-02T12:38:36.440Z,61.41
2017-09-02T12:39:46.465Z,62.94
2017-09-02T12:40:56.819Z,62.91
2017-09-02T12:42:06.910Z,64.04
2017-09-02T12:43:17.266Z,64.01
2017-09-02T12:44:27.624Z,64.17
2017-09-02T12:45:38.432Z,63.88
2017-09-02T12:46:48.784Z,62.91
2017-09-02T12:47:59.190Z,62.65
2017-09-02T12:49:11.811Z,62.78
2017-09-02T12:50:21.866Z,62.29
2017-09-02T12:51:32.941Z,62.39
2017-09-02T12:52:44.952Z,62.19
2017-09-02T12:53:55.386Z,62.78
2017-09-02T12:55:05.750Z,62.01
2017-09-02T12:56:15.493Z,61.91
2017-09-02T12:57:25.535Z,61.71
2017-09-02T12:58:35.893Z,61.71
2017-09-02T12:59:46.321Z,61.32
2017-09-02T13:00:56.694Z,61.35
2017-09-02T13:02:06.735Z,61.16
2017-09-02T13:03:16.777Z,61.35
2017-09-02T13:04:27.147Z,61.55
2017-09-02T13:05:37.506Z,61.55
2017-09-02T13:06:50.384Z,61.84
2017-09-02T13:08:00.755Z,61.45
2017-09-02T13:09:10.802Z,61.16
2017-09-02T13:10:21.173Z,60.9
2017-09-02T13:11:31.630Z,60.93
2017-09-02T13:12:42.014Z,60.83
2017-09-02T13:13:52.404Z,60.74
2017-09-02T13:15:02.447Z,61.02
2017-09-02T13:16:12.810Z,60.74
2017-09-02T13:17:22.896Z,61.51
2017-09-02T13:18:33.277Z,61.38
2017-09-02T13:19:43.337Z,61.48
2017-09-02T13:20:53.732Z,61.19
2017-09-02T13:22:04.093Z,61.29
2017-09-02T13:23:14.454Z,61.55
2017-09-02T13:24:24.498Z,62.52
2017-09-02T13:25:34.890Z,62.19
2017-09-02T13:26:45.251Z,62.88
2017-09-02T13:27:55.632Z,62.95
2017-09-02T13:29:05.692Z,63.82
2017-09-02T13:30:16.066Z,63.85
2017-09-02T13:31:26.414Z,64.11
2017-09-02T13:32:36.471Z,64.69
2017-09-02T13:33:46.850Z,64.75
2017-09-02T13:34:57.227Z,64.56
2017-09-02T13:36:06.958Z,64.27
2017-09-02T13:37:17.323Z,64.04
2017-09-02T13:38:27.685Z,63.49
2017-09-02T13:39:37.752Z,63.31
2017-09-02T13:40:47.830Z,62.53
2017-09-02T13:41:57.890Z,62.85
2017-09-02T13:43:08.262Z,62.75
2017-09-02T13:44:18.622Z,62.75
2017-09-02T13:45:28.661Z,62.37
2017-09-02T13:46:39.072Z,62.66
2017-09-02T13:47:49.451Z,62.56
2017-09-02T13:48:59.494Z,63.49
2017-09-02T13:50:09.519Z,63.66
2017-09-02T13:51:19.541Z,64.04
2017-09-02T13:52:29.972Z,63.82
2017-09-02T13:53:40.339Z,64.4
2017-09-02T13:54:50.705Z,64.08
2017-09-02T13:56:01.062Z,64.08
2017-09-02T13:57:11.113Z,63.98
2017-09-02T13:58:21.545Z,64.37
2017-09-02T13:59:31.912Z,64.53
2017-09-02T14:00:41.955Z,64.05
2017-09-02T14:01:53.066Z,64.14
2017-09-02T14:03:05.228Z,64.05
2017-09-02T14:04:15.667Z,64.34
2017-09-02T14:05:25.702Z,64.05
2017-09-02T14:06:37.581Z,64.4
2017-09-02T14:07:47.672Z,64.05
2017-09-02T14:08:57.697Z,63.82
2017-09-02T14:10:08.369Z,63.82
2017-09-02T14:11:21.551Z,63.82
2017-09-02T14:12:31.932Z,64.21
2017-09-02T14:13:41.969Z,64.21
2017-09-02T14:14:52.003Z,64.31
2017-09-02T14:16:02.351Z,64.59
2017-09-02T14:17:12.697Z,64.56
2017-09-02T14:18:23.071Z,64.18
2017-09-02T14:19:33.434Z,64.47
2017-09-02T14:20:43.478Z,64.56
2017-09-02T14:21:53.577Z,64.56
2017-09-02T14:23:03.930Z,64.53
2017-09-02T14:24:14.296Z,64.63
2017-09-02T14:25:24.641Z,64.63
2017-09-02T14:26:34.705Z,64.53
2017-09-02T14:27:45.107Z,64.43
2017-09-02T14:28:55.478Z,64.24
2017-09-02T14:30:05.836Z,64.43
2017-09-02T14:31:15.926Z,64.43
2017-09-02T14:32:26.288Z,64.43
2017-09-02T14:33:36.313Z,64.53
2017-09-02T14:34:46.351Z,64.53
2017-09-02T14:35:56.744Z,64.63
2017-09-02T14:37:06.159Z,64.43
2017-09-02T14:38:16.201Z,64.53
2017-09-02T14:39:25.978Z,64.63
2017-09-02T14:40:35.692Z,64.34
2017-09-02T14:41:46.062Z,64.63
2017-09-02T14:42:56.109Z,64.34
2017-09-02T14:44:06.165Z,64.43
2017-09-02T14:45:16.258Z,64.53
2017-09-02T14:46:26.620Z,64.53
2017-09-02T14:47:36.685Z,64.53
2017-09-02T14:48:47.029Z,64.05
2017-09-02T14:49:57.099Z,64.34
2017-09-02T14:51:12.749Z,64.53
2017-09-02T14:52:23.115Z,64.24
2017-09-02T14:53:33.184Z,64.63
2017-09-02T14:54:43.220Z,64.53
2017-09-02T14:55:53.581Z,64.59
2017-09-02T14:57:04.250Z,64.31
2017-09-02T14:58:13.981Z,64.5
2017-09-02T14:59:24.355Z,64.59
2017-09-02T15:00:34.732Z,64.59
2017-09-02T15:01:44.786Z,64.21
2017-09-02T15:02:55.166Z,64.31
2017-09-02T15:04:05.207Z,64.59
2017-09-02T15:05:15.582Z,64.31
2017-09-02T15:06:25.949Z,64.5
2017-09-02T15:07:36.330Z,64.21
2017-09-02T15:08:46.409Z,64.21
2017-09-02T15:09:56.782Z,63.85
2017-09-02T15:11:07.147Z,63.76
2017-09-02T15:12:17.188Z,63.57
2017-09-02T15:13:30.847Z,63.76
2017-09-02T15:14:41.242Z,63.76
2017-09-02T15:15:52.556Z,63.7
2017-09-02T15:17:02.614Z,63.79
2017-09-02T15:18:12.961Z,63.7
2017-09-02T15:19:23.311Z,63.79
2017-09-02T15:20:33.739Z,63.7
2017-09-02T15:21:44.109Z,63.5
2017-09-02T15:22:54.178Z,63.7
2017-09-02T15:24:04.559Z,63.79
2017-09-02T15:25:14.614Z,63.5
2017-09-02T15:26:25.014Z,63.7
2017-09-02T15:27:35.426Z,63.31
2017-09-02T15:28:45.479Z,63.79
2017-09-02T15:29:55.905Z,63.89
2017-09-02T15:31:06.279Z,64.37
2017-09-02T15:32:16.369Z,64.18
2017-09-02T15:33:26.730Z,64.08
2017-09-02T15:34:37.363Z,63.89
2017-09-02T15:35:47.378Z,63.85
2017-09-02T15:36:57.735Z,64.37
2017-09-02T15:38:08.146Z,63.98